sensor_id;sensor_type;location;lat;lon;timestamp;P1;durP1;ratioP1;P2;durP2;ratioP2
11488;SDS011;5801;50.804;12.638;2023-07-20T00:01:40;10.63;;;4.20;;
11488;SDS011;5801;50.804;12.638;2023-07-20T00:04:09;9.77;;;3.50;;
11488;SDS011;5801;50.804;12.638;2023-07-20T00:06:35;5.38;;;3.58;;
11488;SDS011;5801;50.804;12.638;2023-07-20T00:09:05;14.45;;;3.72;;
11488;SDS011;5801;50.804;12.638;2023-07-20T00:11:32;4.68;;;3.83;;
11488;SDS011;5801;50.804;12.638;2023-07-20T00:14:01;8.10;;;3.55;;
11488;SDS011;5801;50.804;12.638;2023-07-20T00:16:27;8.18;;;3.70;;
11488;SDS011;5801;50.804;12.638;2023-07-20T00:18:53;7.47;;;3.80;;
11488;SDS011;5801;50.804;12.638;2023-07-20T00:21:19;5.75;;;3.13;;
11488;SDS011;5801;50.804;12.638;2023-07-20T00:23:45;5.95;;;3.50;;
11488;SDS011;5801;50.804;12.638;2023-07-20T00:26:11;6.25;;;3.75;;
11488;SDS011;5801;50.804;12.638;2023-07-20T00:28:37;3.15;;;2.63;;
11488;SDS011;5801;50.804;12.638;2023-07-20T00:31:03;6.88;;;3.70;;
11488;SDS011;5801;50.804;12.638;2023-07-20T00:33:29;7.45;;;4.07;;
11488;SDS011;5801;50.804;12.638;2023-07-20T00:35:55;6.75;;;3.60;;
11488;SDS011;5801;50.804;12.638;2023-07-20T00:38:21;4.53;;;3.10;;
11488;SDS011;5801;50.804;12.638;2023-07-20T00:40:48;4.45;;;3.50;;
11488;SDS011;5801;50.804;12.638;2023-07-20T00:43:14;6.75;;;3.30;;
11488;SDS011;5801;50.804;12.638;2023-07-20T00:45:40;14.30;;;3.78;;
11488;SDS011;5801;50.804;12.638;2023-07-20T00:48:06;4.70;;;3.45;;
11488;SDS011;5801;50.804;12.638;2023-07-20T00:50:34;4.05;;;3.13;;
11488;SDS011;5801;50.804;12.638;2023-07-20T00:53:00;8.05;;;3.45;;
11488;SDS011;5801;50.804;12.638;2023-07-20T00:55:29;12.00;;;4.03;;
11488;SDS011;5801;50.804;12.638;2023-07-20T00:57:55;17.27;;;4.20;;
11488;SDS011;5801;50.804;12.638;2023-07-20T01:00:21;10.48;;;3.88;;
11488;SDS011;5801;50.804;12.638;2023-07-20T01:02:47;7.32;;;3.92;;
11488;SDS011;5801;50.804;12.638;2023-07-20T01:05:13;20.00;;;4.10;;
11488;SDS011;5801;50.804;12.638;2023-07-20T01:07:46;5.22;;;4.07;;
11488;SDS011;5801;50.804;12.638;2023-07-20T01:10:40;9.57;;;3.78;;
11488;SDS011;5801;50.804;12.638;2023-07-20T01:13:10;6.38;;;3.85;;
11488;SDS011;5801;50.804;12.638;2023-07-20T01:15:37;14.70;;;4.05;;
11488;SDS011;5801;50.804;12.638;2023-07-20T01:18:04;8.95;;;3.92;;
11488;SDS011;5801;50.804;12.638;2023-07-20T01:32:14;11.95;;;4.05;;
11488;SDS011;5801;50.804;12.638;2023-07-20T01:34:43;11.18;;;5.10;;
11488;SDS011;5801;50.804;12.638;2023-07-20T01:37:10;10.27;;;4.07;;
11488;SDS011;5801;50.804;12.638;2023-07-20T01:39:36;11.93;;;4.45;;
11488;SDS011;5801;50.804;12.638;2023-07-20T01:42:03;12.50;;;4.78;;
11488;SDS011;5801;50.804;12.638;2023-07-20T01:44:29;14.48;;;5.30;;
11488;SDS011;5801;50.804;12.638;2023-07-20T01:46:55;14.18;;;4.45;;
11488;SDS011;5801;50.804;12.638;2023-07-20T01:49:21;12.80;;;4.43;;
11488;SDS011;5801;50.804;12.638;2023-07-20T01:51:47;18.52;;;4.57;;
11488;SDS011;5801;50.804;12.638;2023-07-20T01:54:13;7.97;;;4.20;;
11488;SDS011;5801;50.804;12.638;2023-07-20T01:56:39;14.95;;;3.70;;
11488;SDS011;5801;50.804;12.638;2023-07-20T01:59:05;11.65;;;4.60;;
11488;SDS011;5801;50.804;12.638;2023-07-20T02:01:31;20.08;;;4.60;;
11488;SDS011;5801;50.804;12.638;2023-07-20T02:03:58;4.45;;;3.55;;
11488;SDS011;5801;50.804;12.638;2023-07-20T02:06:24;21.38;;;4.25;;
11488;SDS011;5801;50.804;12.638;2023-07-20T02:08:50;9.65;;;3.95;;
11488;SDS011;5801;50.804;12.638;2023-07-20T02:11:16;11.63;;;4.90;;
11488;SDS011;5801;50.804;12.638;2023-07-20T02:13:42;15.55;;;3.63;;
11488;SDS011;5801;50.804;12.638;2023-07-20T02:16:08;12.68;;;4.43;;
11488;SDS011;5801;50.804;12.638;2023-07-20T02:18:36;16.88;;;4.40;;
11488;SDS011;5801;50.804;12.638;2023-07-20T02:21:02;4.18;;;3.65;;
11488;SDS011;5801;50.804;12.638;2023-07-20T02:23:28;9.43;;;4.40;;
11488;SDS011;5801;50.804;12.638;2023-07-20T02:25:54;9.48;;;3.97;;
11488;SDS011;5801;50.804;12.638;2023-07-20T02:28:19;8.35;;;3.70;;
11488;SDS011;5801;50.804;12.638;2023-07-20T02:30:45;8.48;;;3.83;;
11488;SDS011;5801;50.804;12.638;2023-07-20T02:33:12;13.60;;;4.00;;
11488;SDS011;5801;50.804;12.638;2023-07-20T02:35:37;14.80;;;4.35;;
11488;SDS011;5801;50.804;12.638;2023-07-20T02:38:05;8.55;;;4.35;;
11488;SDS011;5801;50.804;12.638;2023-07-20T02:40:32;10.75;;;4.30;;
11488;SDS011;5801;50.804;12.638;2023-07-20T02:42:58;9.52;;;3.90;;
11488;SDS011;5801;50.804;12.638;2023-07-20T02:45:24;15.88;;;4.57;;
11488;SDS011;5801;50.804;12.638;2023-07-20T02:47:50;15.85;;;4.70;;
11488;SDS011;5801;50.804;12.638;2023-07-20T02:50:16;8.82;;;4.50;;
11488;SDS011;5801;50.804;12.638;2023-07-20T02:52:42;17.15;;;4.93;;
11488;SDS011;5801;50.804;12.638;2023-07-20T02:55:08;28.15;;;4.90;;
11488;SDS011;5801;50.804;12.638;2023-07-20T02:57:34;22.15;;;5.20;;
11488;SDS011;5801;50.804;12.638;2023-07-20T03:00:01;11.77;;;4.70;;
11488;SDS011;5801;50.804;12.638;2023-07-20T03:02:30;11.82;;;4.03;;
11488;SDS011;5801;50.804;12.638;2023-07-20T03:04:55;24.50;;;4.47;;
11488;SDS011;5801;50.804;12.638;2023-07-20T03:07:22;23.23;;;4.80;;
11488;SDS011;5801;50.804;12.638;2023-07-20T03:09:48;18.90;;;4.38;;
11488;SDS011;5801;50.804;12.638;2023-07-20T03:12:14;16.48;;;4.00;;
11488;SDS011;5801;50.804;12.638;2023-07-20T03:14:40;13.65;;;4.40;;
11488;SDS011;5801;50.804;12.638;2023-07-20T03:17:06;6.63;;;4.57;;
11488;SDS011;5801;50.804;12.638;2023-07-20T03:19:33;14.50;;;4.72;;
11488;SDS011;5801;50.804;12.638;2023-07-20T03:21:59;16.90;;;4.97;;
11488;SDS011;5801;50.804;12.638;2023-07-20T03:24:25;11.73;;;5.05;;
11488;SDS011;5801;50.804;12.638;2023-07-20T03:26:52;10.27;;;4.75;;
11488;SDS011;5801;50.804;12.638;2023-07-20T03:29:18;11.10;;;4.93;;
11488;SDS011;5801;50.804;12.638;2023-07-20T03:31:44;14.77;;;3.97;;
11488;SDS011;5801;50.804;12.638;2023-07-20T03:34:10;19.48;;;4.32;;
11488;SDS011;5801;50.804;12.638;2023-07-20T03:36:36;11.57;;;4.32;;
11488;SDS011;5801;50.804;12.638;2023-07-20T03:39:02;9.00;;;4.00;;
11488;SDS011;5801;50.804;12.638;2023-07-20T03:41:28;12.02;;;4.47;;
11488;SDS011;5801;50.804;12.638;2023-07-20T03:43:54;9.73;;;4.20;;
11488;SDS011;5801;50.804;12.638;2023-07-20T03:46:21;9.55;;;4.15;;
11488;SDS011;5801;50.804;12.638;2023-07-20T03:48:47;15.90;;;4.20;;
11488;SDS011;5801;50.804;12.638;2023-07-20T03:51:13;15.07;;;4.70;;
11488;SDS011;5801;50.804;12.638;2023-07-20T03:53:39;13.75;;;4.47;;
11488;SDS011;5801;50.804;12.638;2023-07-20T03:56:05;15.43;;;4.68;;
11488;SDS011;5801;50.804;12.638;2023-07-20T03:58:31;17.88;;;4.35;;
11488;SDS011;5801;50.804;12.638;2023-07-20T04:00:57;9.98;;;4.45;;
11488;SDS011;5801;50.804;12.638;2023-07-20T04:03:23;15.55;;;4.35;;
11488;SDS011;5801;50.804;12.638;2023-07-20T04:05:52;5.68;;;4.35;;
11488;SDS011;5801;50.804;12.638;2023-07-20T04:08:20;9.10;;;4.28;;
11488;SDS011;5801;50.804;12.638;2023-07-20T04:10:47;9.73;;;4.45;;
11488;SDS011;5801;50.804;12.638;2023-07-20T04:13:13;20.90;;;4.53;;
11488;SDS011;5801;50.804;12.638;2023-07-20T04:15:39;10.13;;;4.18;;
11488;SDS011;5801;50.804;12.638;2023-07-20T04:18:06;14.27;;;4.70;;
11488;SDS011;5801;50.804;12.638;2023-07-20T04:20:32;9.57;;;4.22;;
11488;SDS011;5801;50.804;12.638;2023-07-20T04:22:59;10.18;;;4.57;;
11488;SDS011;5801;50.804;12.638;2023-07-20T04:25:25;9.70;;;4.15;;
11488;SDS011;5801;50.804;12.638;2023-07-20T04:27:51;9.27;;;4.47;;
11488;SDS011;5801;50.804;12.638;2023-07-20T04:30:18;10.02;;;4.60;;
11488;SDS011;5801;50.804;12.638;2023-07-20T04:32:45;16.65;;;4.55;;
11488;SDS011;5801;50.804;12.638;2023-07-20T04:35:16;12.32;;;3.97;;
11488;SDS011;5801;50.804;12.638;2023-07-20T04:38:02;8.23;;;3.92;;
11488;SDS011;5801;50.804;12.638;2023-07-20T04:40:28;5.28;;;4.15;;
11488;SDS011;5801;50.804;12.638;2023-07-20T04:42:54;6.03;;;4.57;;
11488;SDS011;5801;50.804;12.638;2023-07-20T04:45:20;5.50;;;3.83;;
11488;SDS011;5801;50.804;12.638;2023-07-20T04:47:48;10.63;;;4.13;;
11488;SDS011;5801;50.804;12.638;2023-07-20T04:50:16;6.50;;;3.95;;
11488;SDS011;5801;50.804;12.638;2023-07-20T04:52:42;9.50;;;4.40;;
11488;SDS011;5801;50.804;12.638;2023-07-20T04:55:07;7.45;;;4.45;;
11488;SDS011;5801;50.804;12.638;2023-07-20T04:57:34;8.60;;;4.15;;
11488;SDS011;5801;50.804;12.638;2023-07-20T05:00:00;7.13;;;4.28;;
11488;SDS011;5801;50.804;12.638;2023-07-20T05:02:26;6.20;;;4.43;;
11488;SDS011;5801;50.804;12.638;2023-07-20T05:04:52;6.53;;;4.40;;
11488;SDS011;5801;50.804;12.638;2023-07-20T05:07:18;8.77;;;4.43;;
11488;SDS011;5801;50.804;12.638;2023-07-20T05:09:44;6.28;;;4.78;;
11488;SDS011;5801;50.804;12.638;2023-07-20T05:12:09;6.07;;;4.25;;
11488;SDS011;5801;50.804;12.638;2023-07-20T05:14:37;13.88;;;4.28;;
11488;SDS011;5801;50.804;12.638;2023-07-20T05:17:03;6.47;;;4.55;;
11488;SDS011;5801;50.804;12.638;2023-07-20T05:19:29;11.20;;;4.90;;
11488;SDS011;5801;50.804;12.638;2023-07-20T05:21:55;5.75;;;4.22;;
11488;SDS011;5801;50.804;12.638;2023-07-20T05:24:21;8.88;;;4.85;;
11488;SDS011;5801;50.804;12.638;2023-07-20T05:26:47;7.30;;;4.20;;
11488;SDS011;5801;50.804;12.638;2023-07-20T05:29:13;6.35;;;4.38;;
11488;SDS011;5801;50.804;12.638;2023-07-20T05:31:39;4.40;;;3.45;;
11488;SDS011;5801;50.804;12.638;2023-07-20T05:34:05;4.35;;;3.95;;
11488;SDS011;5801;50.804;12.638;2023-07-20T05:36:31;7.43;;;3.17;;
11488;SDS011;5801;50.804;12.638;2023-07-20T05:38:57;3.97;;;2.78;;
11488;SDS011;5801;50.804;12.638;2023-07-20T05:41:22;4.05;;;2.95;;
11488;SDS011;5801;50.804;12.638;2023-07-20T05:43:49;6.15;;;2.70;;
11488;SDS011;5801;50.804;12.638;2023-07-20T05:46:15;3.72;;;2.20;;
11488;SDS011;5801;50.804;12.638;2023-07-20T05:48:41;8.98;;;2.67;;
11488;SDS011;5801;50.804;12.638;2023-07-20T05:51:07;3.35;;;1.80;;
11488;SDS011;5801;50.804;12.638;2023-07-20T05:53:34;1.88;;;1.70;;
11488;SDS011;5801;50.804;12.638;2023-07-20T05:56:00;3.00;;;1.58;;
11488;SDS011;5801;50.804;12.638;2023-07-20T05:58:26;2.55;;;1.65;;
11488;SDS011;5801;50.804;12.638;2023-07-20T06:00:52;4.25;;;1.52;;
11488;SDS011;5801;50.804;12.638;2023-07-20T06:03:18;2.47;;;1.80;;
11488;SDS011;5801;50.804;12.638;2023-07-20T06:05:46;2.42;;;1.70;;
11488;SDS011;5801;50.804;12.638;2023-07-20T06:08:12;1.42;;;1.33;;
11488;SDS011;5801;50.804;12.638;2023-07-20T06:10:38;4.65;;;1.58;;
11488;SDS011;5801;50.804;12.638;2023-07-20T06:13:04;2.83;;;1.42;;
11488;SDS011;5801;50.804;12.638;2023-07-20T06:15:31;3.30;;;1.50;;
11488;SDS011;5801;50.804;12.638;2023-07-20T06:18:00;2.63;;;1.42;;
11488;SDS011;5801;50.804;12.638;2023-07-20T06:20:26;2.28;;;1.33;;
11488;SDS011;5801;50.804;12.638;2023-07-20T06:22:52;2.40;;;1.30;;
11488;SDS011;5801;50.804;12.638;2023-07-20T06:25:18;1.27;;;1.17;;
11488;SDS011;5801;50.804;12.638;2023-07-20T06:27:43;1.92;;;1.23;;
11488;SDS011;5801;50.804;12.638;2023-07-20T06:30:10;1.20;;;1.10;;
11488;SDS011;5801;50.804;12.638;2023-07-20T06:32:37;3.00;;;1.17;;
11488;SDS011;5801;50.804;12.638;2023-07-20T06:35:03;1.10;;;1.00;;
11488;SDS011;5801;50.804;12.638;2023-07-20T06:37:30;1.10;;;1.00;;
11488;SDS011;5801;50.804;12.638;2023-07-20T06:39:56;1.10;;;1.00;;
11488;SDS011;5801;50.804;12.638;2023-07-20T06:42:22;1.23;;;1.20;;
11488;SDS011;5801;50.804;12.638;2023-07-20T06:44:48;2.55;;;1.20;;
11488;SDS011;5801;50.804;12.638;2023-07-20T06:47:14;1.52;;;1.42;;
11488;SDS011;5801;50.804;12.638;2023-07-20T06:49:40;3.72;;;1.88;;
11488;SDS011;5801;50.804;12.638;2023-07-20T06:52:06;2.78;;;1.90;;
11488;SDS011;5801;50.804;12.638;2023-07-20T06:54:32;3.22;;;2.22;;
11488;SDS011;5801;50.804;12.638;2023-07-20T06:56:58;2.42;;;2.20;;
11488;SDS011;5801;50.804;12.638;2023-07-20T06:59:24;6.45;;;3.38;;
11488;SDS011;5801;50.804;12.638;2023-07-20T07:01:50;6.88;;;3.20;;
11488;SDS011;5801;50.804;12.638;2023-07-20T07:04:17;7.05;;;3.80;;
11488;SDS011;5801;50.804;12.638;2023-07-20T07:06:43;4.72;;;3.70;;
11488;SDS011;5801;50.804;12.638;2023-07-20T07:09:09;4.70;;;3.33;;
11488;SDS011;5801;50.804;12.638;2023-07-20T07:11:35;5.28;;;4.18;;
11488;SDS011;5801;50.804;12.638;2023-07-20T07:14:01;4.47;;;4.07;;
11488;SDS011;5801;50.804;12.638;2023-07-20T07:16:27;7.93;;;4.65;;
11488;SDS011;5801;50.804;12.638;2023-07-20T07:18:53;11.35;;;5.00;;
11488;SDS011;5801;50.804;12.638;2023-07-20T07:21:20;9.50;;;5.18;;
11488;SDS011;5801;50.804;12.638;2023-07-20T07:23:46;9.43;;;5.90;;
11488;SDS011;5801;50.804;12.638;2023-07-20T07:26:13;11.90;;;5.57;;
11488;SDS011;5801;50.804;12.638;2023-07-20T07:28:39;17.55;;;5.15;;
11488;SDS011;5801;50.804;12.638;2023-07-20T07:31:05;5.75;;;5.15;;
11488;SDS011;5801;50.804;12.638;2023-07-20T07:33:31;6.72;;;5.40;;
11488;SDS011;5801;50.804;12.638;2023-07-20T07:35:57;9.75;;;5.30;;
11488;SDS011;5801;50.804;12.638;2023-07-20T07:38:23;10.25;;;5.00;;
11488;SDS011;5801;50.804;12.638;2023-07-20T07:40:49;8.20;;;5.03;;
11488;SDS011;5801;50.804;12.638;2023-07-20T07:43:15;6.28;;;4.45;;
11488;SDS011;5801;50.804;12.638;2023-07-20T07:45:41;5.93;;;4.20;;
11488;SDS011;5801;50.804;12.638;2023-07-20T07:48:08;6.05;;;4.07;;
11488;SDS011;5801;50.804;12.638;2023-07-20T07:50:36;5.63;;;4.05;;
11488;SDS011;5801;50.804;12.638;2023-07-20T07:53:02;12.65;;;3.78;;
11488;SDS011;5801;50.804;12.638;2023-07-20T07:55:28;8.43;;;3.72;;
11488;SDS011;5801;50.804;12.638;2023-07-20T07:57:54;7.35;;;4.43;;
11488;SDS011;5801;50.804;12.638;2023-07-20T08:00:20;7.07;;;4.00;;
11488;SDS011;5801;50.804;12.638;2023-07-20T08:02:46;6.50;;;3.92;;
11488;SDS011;5801;50.804;12.638;2023-07-20T08:05:15;7.25;;;3.53;;
11488;SDS011;5801;50.804;12.638;2023-07-20T08:07:41;6.65;;;3.80;;
11488;SDS011;5801;50.804;12.638;2023-07-20T08:10:08;8.10;;;3.92;;
11488;SDS011;5801;50.804;12.638;2023-07-20T08:12:34;5.63;;;3.40;;
11488;SDS011;5801;50.804;12.638;2023-07-20T08:15:00;3.38;;;2.85;;
11488;SDS011;5801;50.804;12.638;2023-07-20T08:17:26;3.45;;;3.15;;
11488;SDS011;5801;50.804;12.638;2023-07-20T08:19:52;8.95;;;3.45;;
11488;SDS011;5801;50.804;12.638;2023-07-20T08:22:18;5.40;;;3.38;;
11488;SDS011;5801;50.804;12.638;2023-07-20T08:24:44;4.05;;;3.17;;
11488;SDS011;5801;50.804;12.638;2023-07-20T08:27:10;3.53;;;2.85;;
11488;SDS011;5801;50.804;12.638;2023-07-20T08:29:36;6.50;;;2.83;;
11488;SDS011;5801;50.804;12.638;2023-07-20T08:32:02;4.65;;;2.78;;
11488;SDS011;5801;50.804;12.638;2023-07-20T08:34:29;4.35;;;2.70;;
11488;SDS011;5801;50.804;12.638;2023-07-20T08:36:56;5.45;;;2.80;;
11488;SDS011;5801;50.804;12.638;2023-07-20T08:39:23;3.72;;;2.88;;
11488;SDS011;5801;50.804;12.638;2023-07-20T08:41:49;8.15;;;3.78;;
11488;SDS011;5801;50.804;12.638;2023-07-20T08:44:15;4.95;;;2.53;;
11488;SDS011;5801;50.804;12.638;2023-07-20T08:46:41;3.58;;;2.30;;
11488;SDS011;5801;50.804;12.638;2023-07-20T08:49:08;2.85;;;2.28;;
11488;SDS011;5801;50.804;12.638;2023-07-20T08:51:35;2.88;;;2.40;;
11488;SDS011;5801;50.804;12.638;2023-07-20T08:54:01;3.83;;;2.17;;
11488;SDS011;5801;50.804;12.638;2023-07-20T08:56:27;11.60;;;1.88;;
11488;SDS011;5801;50.804;12.638;2023-07-20T08:58:53;2.90;;;2.00;;
11488;SDS011;5801;50.804;12.638;2023-07-20T09:01:19;3.25;;;1.77;;
11488;SDS011;5801;50.804;12.638;2023-07-20T09:03:47;2.72;;;2.13;;
11488;SDS011;5801;50.804;12.638;2023-07-20T09:06:13;5.70;;;2.30;;
11488;SDS011;5801;50.804;12.638;2023-07-20T09:08:40;2.92;;;1.95;;
11488;SDS011;5801;50.804;12.638;2023-07-20T09:11:06;3.53;;;2.20;;
11488;SDS011;5801;50.804;12.638;2023-07-20T09:13:33;5.93;;;2.05;;
11488;SDS011;5801;50.804;12.638;2023-07-20T09:16:00;2.67;;;1.50;;
11488;SDS011;5801;50.804;12.638;2023-07-20T09:18:27;2.05;;;1.85;;
11488;SDS011;5801;50.804;12.638;2023-07-20T09:21:04;1.92;;;1.60;;
11488;SDS011;5801;50.804;12.638;2023-07-20T09:23:34;2.25;;;1.83;;
11488;SDS011;5801;50.804;12.638;2023-07-20T09:26:10;3.85;;;1.60;;
11488;SDS011;5801;50.804;12.638;2023-07-20T09:28:48;4.75;;;1.52;;
11488;SDS011;5801;50.804;12.638;2023-07-20T09:31:17;1.75;;;1.65;;
11488;SDS011;5801;50.804;12.638;2023-07-20T09:33:47;1.60;;;1.50;;
11488;SDS011;5801;50.804;12.638;2023-07-20T09:36:14;4.55;;;1.90;;
11488;SDS011;5801;50.804;12.638;2023-07-20T09:38:43;2.78;;;1.90;;
11488;SDS011;5801;50.804;12.638;2023-07-20T09:41:12;1.80;;;1.50;;
11488;SDS011;5801;50.804;12.638;2023-07-20T09:43:40;2.10;;;1.55;;
11488;SDS011;5801;50.804;12.638;2023-07-20T09:46:06;2.80;;;1.95;;
11488;SDS011;5801;50.804;12.638;2023-07-20T09:48:32;4.15;;;2.22;;
11488;SDS011;5801;50.804;12.638;2023-07-20T09:50:58;1.90;;;1.70;;
11488;SDS011;5801;50.804;12.638;2023-07-20T09:53:25;1.60;;;1.50;;
11488;SDS011;5801;50.804;12.638;2023-07-20T09:55:52;5.18;;;1.50;;
11488;SDS011;5801;50.804;12.638;2023-07-20T09:58:19;3.67;;;1.50;;
11488;SDS011;5801;50.804;12.638;2023-07-20T10:00:45;1.95;;;1.40;;
11488;SDS011;5801;50.804;12.638;2023-07-20T10:03:18;4.90;;;1.48;;
11488;SDS011;5801;50.804;12.638;2023-07-20T10:05:47;1.70;;;1.58;;
11488;SDS011;5801;50.804;12.638;2023-07-20T10:08:20;3.60;;;1.70;;
11488;SDS011;5801;50.804;12.638;2023-07-20T10:10:49;1.60;;;1.50;;
11488;SDS011;5801;50.804;12.638;2023-07-20T10:13:25;4.13;;;1.48;;
11488;SDS011;5801;50.804;12.638;2023-07-20T10:15:53;2.03;;;1.60;;
11488;SDS011;5801;50.804;12.638;2023-07-20T10:20:54;2.45;;;1.40;;
11488;SDS011;5801;50.804;12.638;2023-07-20T10:23:22;2.80;;;1.52;;
11488;SDS011;5801;50.804;12.638;2023-07-20T10:25:50;1.55;;;1.20;;
11488;SDS011;5801;50.804;12.638;2023-07-20T10:28:16;1.60;;;1.50;;
11488;SDS011;5801;50.804;12.638;2023-07-20T10:30:42;1.60;;;1.50;;
11488;SDS011;5801;50.804;12.638;2023-07-20T10:33:08;2.20;;;2.00;;
11488;SDS011;5801;50.804;12.638;2023-07-20T10:35:54;3.10;;;1.88;;
11488;SDS011;5801;50.804;12.638;2023-07-20T10:41:18;2.75;;;1.90;;
11488;SDS011;5801;50.804;12.638;2023-07-20T10:43:46;5.53;;;1.98;;
11488;SDS011;5801;50.804;12.638;2023-07-20T10:46:13;4.75;;;2.17;;
11488;SDS011;5801;50.804;12.638;2023-07-20T10:51:26;2.17;;;1.98;;
11488;SDS011;5801;50.804;12.638;2023-07-20T10:53:52;3.72;;;1.70;;
11488;SDS011;5801;50.804;12.638;2023-07-20T10:56:25;3.45;;;1.48;;
11488;SDS011;5801;50.804;12.638;2023-07-20T10:58:57;4.25;;;1.90;;
11488;SDS011;5801;50.804;12.638;2023-07-20T11:01:28;2.17;;;1.75;;
11488;SDS011;5801;50.804;12.638;2023-07-20T11:03:57;5.07;;;1.85;;
11488;SDS011;5801;50.804;12.638;2023-07-20T11:09:08;6.05;;;1.75;;
11488;SDS011;5801;50.804;12.638;2023-07-20T11:11:47;1.63;;;1.30;;
11488;SDS011;5801;50.804;12.638;2023-07-20T11:14:20;1.88;;;1.40;;
11488;SDS011;5801;50.804;12.638;2023-07-20T11:16:51;6.32;;;1.63;;
11488;SDS011;5801;50.804;12.638;2023-07-20T11:19:19;4.47;;;1.45;;
11488;SDS011;5801;50.804;12.638;2023-07-20T11:21:58;3.42;;;1.48;;
11488;SDS011;5801;50.804;12.638;2023-07-20T11:24:24;1.60;;;1.50;;
11488;SDS011;5801;50.804;12.638;2023-07-20T11:26:50;4.00;;;1.65;;
11488;SDS011;5801;50.804;12.638;2023-07-20T11:29:18;1.98;;;1.52;;
11488;SDS011;5801;50.804;12.638;2023-07-20T11:31:47;3.72;;;2.10;;
11488;SDS011;5801;50.804;12.638;2023-07-20T11:36:49;2.40;;;1.55;;
11488;SDS011;5801;50.804;12.638;2023-07-20T11:39:17;6.50;;;1.63;;
11488;SDS011;5801;50.804;12.638;2023-07-20T11:41:48;3.95;;;1.70;;
11488;SDS011;5801;50.804;12.638;2023-07-20T11:44:16;3.15;;;2.10;;
11488;SDS011;5801;50.804;12.638;2023-07-20T11:46:43;1.63;;;1.52;;
11488;SDS011;5801;50.804;12.638;2023-07-20T11:49:11;2.10;;;1.25;;
11488;SDS011;5801;50.804;12.638;2023-07-20T11:51:37;7.38;;;1.10;;
11488;SDS011;5801;50.804;12.638;2023-07-20T11:54:08;8.20;;;1.60;;
11488;SDS011;5801;50.804;12.638;2023-07-20T11:56:35;3.63;;;1.60;;
11488;SDS011;5801;50.804;12.638;2023-07-20T11:59:00;8.73;;;1.75;;
11488;SDS011;5801;50.804;12.638;2023-07-20T12:01:28;3.63;;;1.58;;
11488;SDS011;5801;50.804;12.638;2023-07-20T12:03:57;3.45;;;1.83;;
11488;SDS011;5801;50.804;12.638;2023-07-20T12:06:31;2.97;;;1.75;;
11488;SDS011;5801;50.804;12.638;2023-07-20T12:08:58;2.95;;;1.60;;
11488;SDS011;5801;50.804;12.638;2023-07-20T12:14:01;2.25;;;1.60;;
11488;SDS011;5801;50.804;12.638;2023-07-20T12:16:29;3.33;;;2.25;;
11488;SDS011;5801;50.804;12.638;2023-07-20T12:21:30;4.70;;;2.00;;
11488;SDS011;5801;50.804;12.638;2023-07-20T12:23:57;2.35;;;2.13;;
11488;SDS011;5801;50.804;12.638;2023-07-20T12:26:24;2.38;;;2.17;;
11488;SDS011;5801;50.804;12.638;2023-07-20T12:28:51;4.13;;;2.40;;
11488;SDS011;5801;50.804;12.638;2023-07-20T12:31:17;3.05;;;2.10;;
11488;SDS011;5801;50.804;12.638;2023-07-20T12:33:43;3.00;;;2.38;;
11488;SDS011;5801;50.804;12.638;2023-07-20T12:36:10;3.22;;;1.95;;
11488;SDS011;5801;50.804;12.638;2023-07-20T12:38:36;2.40;;;2.13;;
11488;SDS011;5801;50.804;12.638;2023-07-20T12:41:02;3.75;;;2.38;;
11488;SDS011;5801;50.804;12.638;2023-07-20T12:43:29;3.38;;;2.20;;
11488;SDS011;5801;50.804;12.638;2023-07-20T12:45:55;2.33;;;2.13;;
11488;SDS011;5801;50.804;12.638;2023-07-20T12:48:21;1.98;;;1.88;;
11488;SDS011;5801;50.804;12.638;2023-07-20T12:50:47;2.80;;;2.50;;
11488;SDS011;5801;50.804;12.638;2023-07-20T12:53:14;2.80;;;2.20;;
11488;SDS011;5801;50.804;12.638;2023-07-20T12:55:40;2.45;;;1.98;;
11488;SDS011;5801;50.804;12.638;2023-07-20T12:58:06;2.83;;;2.42;;
11488;SDS011;5801;50.804;12.638;2023-07-20T13:00:33;2.28;;;2.00;;
11488;SDS011;5801;50.804;12.638;2023-07-20T13:02:59;2.75;;;2.30;;
11488;SDS011;5801;50.804;12.638;2023-07-20T13:05:27;2.28;;;2.08;;
11488;SDS011;5801;50.804;12.638;2023-07-20T13:07:53;2.50;;;2.30;;
11488;SDS011;5801;50.804;12.638;2023-07-20T13:10:19;3.08;;;1.92;;
11488;SDS011;5801;50.804;12.638;2023-07-20T13:12:45;4.22;;;1.83;;
11488;SDS011;5801;50.804;12.638;2023-07-20T13:15:11;1.55;;;1.40;;
11488;SDS011;5801;50.804;12.638;2023-07-20T13:17:38;3.08;;;1.65;;
11488;SDS011;5801;50.804;12.638;2023-07-20T13:20:05;1.50;;;1.40;;
11488;SDS011;5801;50.804;12.638;2023-07-20T13:22:34;1.60;;;1.50;;
11488;SDS011;5801;50.804;12.638;2023-07-20T13:25:01;1.92;;;1.70;;
11488;SDS011;5801;50.804;12.638;2023-07-20T13:27:27;1.98;;;1.73;;
11488;SDS011;5801;50.804;12.638;2023-07-20T13:29:53;2.00;;;1.77;;
11488;SDS011;5801;50.804;12.638;2023-07-20T13:32:19;2.00;;;1.80;;
11488;SDS011;5801;50.804;12.638;2023-07-20T13:34:45;1.98;;;1.85;;
11488;SDS011;5801;50.804;12.638;2023-07-20T13:37:11;2.00;;;1.90;;
11488;SDS011;5801;50.804;12.638;2023-07-20T13:39:38;11.68;;;2.30;;
11488;SDS011;5801;50.804;12.638;2023-07-20T13:42:04;1.85;;;1.75;;
11488;SDS011;5801;50.804;12.638;2023-07-20T13:44:31;1.73;;;1.63;;
11488;SDS011;5801;50.804;12.638;2023-07-20T13:46:57;2.05;;;1.85;;
11488;SDS011;5801;50.804;12.638;2023-07-20T13:49:23;1.73;;;1.63;;
11488;SDS011;5801;50.804;12.638;2023-07-20T13:51:49;1.67;;;1.58;;
11488;SDS011;5801;50.804;12.638;2023-07-20T13:54:15;1.92;;;1.83;;
11488;SDS011;5801;50.804;12.638;2023-07-20T13:56:41;4.00;;;2.03;;
11488;SDS011;5801;50.804;12.638;2023-07-20T13:59:07;3.00;;;1.85;;
11488;SDS011;5801;50.804;12.638;2023-07-20T14:01:34;1.70;;;1.60;;
11488;SDS011;5801;50.804;12.638;2023-07-20T14:04:00;2.90;;;2.17;;
11488;SDS011;5801;50.804;12.638;2023-07-20T14:06:30;2.33;;;1.90;;
11488;SDS011;5801;50.804;12.638;2023-07-20T14:08:57;1.95;;;1.70;;
11488;SDS011;5801;50.804;12.638;2023-07-20T14:11:23;2.00;;;1.90;;
11488;SDS011;5801;50.804;12.638;2023-07-20T14:13:50;2.00;;;1.80;;
11488;SDS011;5801;50.804;12.638;2023-07-20T14:16:18;1.75;;;1.65;;
11488;SDS011;5801;50.804;12.638;2023-07-20T14:18:44;1.65;;;1.45;;
11488;SDS011;5801;50.804;12.638;2023-07-20T14:21:12;1.08;;;1.08;;
11488;SDS011;5801;50.804;12.638;2023-07-20T14:23:38;1.33;;;1.23;;
11488;SDS011;5801;50.804;12.638;2023-07-20T14:26:04;1.65;;;1.17;;
11488;SDS011;5801;50.804;12.638;2023-07-20T14:28:30;1.38;;;1.27;;
11488;SDS011;5801;50.804;12.638;2023-07-20T14:30:57;4.72;;;1.60;;
11488;SDS011;5801;50.804;12.638;2023-07-20T14:33:23;2.83;;;1.30;;
11488;SDS011;5801;50.804;12.638;2023-07-20T14:35:48;2.13;;;1.42;;
11488;SDS011;5801;50.804;12.638;2023-07-20T14:38:14;1.20;;;1.10;;
11488;SDS011;5801;50.804;12.638;2023-07-20T14:40:40;1.30;;;1.20;;
11488;SDS011;5801;50.804;12.638;2023-07-20T14:43:06;1.27;;;1.20;;
11488;SDS011;5801;50.804;12.638;2023-07-20T14:45:32;1.10;;;1.00;;
11488;SDS011;5801;50.804;12.638;2023-07-20T14:47:58;3.15;;;1.50;;
11488;SDS011;5801;50.804;12.638;2023-07-20T14:50:24;1.27;;;1.17;;
11488;SDS011;5801;50.804;12.638;2023-07-20T14:52:50;1.25;;;1.15;;
11488;SDS011;5801;50.804;12.638;2023-07-20T14:55:16;1.05;;;1.00;;
11488;SDS011;5801;50.804;12.638;2023-07-20T14:57:43;1.67;;;1.15;;
11488;SDS011;5801;50.804;12.638;2023-07-20T15:00:08;1.20;;;1.10;;
11488;SDS011;5801;50.804;12.638;2023-07-20T15:02:38;1.30;;;1.20;;
11488;SDS011;5801;50.804;12.638;2023-07-20T15:05:06;1.70;;;1.30;;
11488;SDS011;5801;50.804;12.638;2023-07-20T15:07:33;1.30;;;1.20;;
11488;SDS011;5801;50.804;12.638;2023-07-20T15:09:59;1.40;;;1.30;;
11488;SDS011;5801;50.804;12.638;2023-07-20T15:12:26;1.67;;;1.27;;
11488;SDS011;5801;50.804;12.638;2023-07-20T15:15:08;1.75;;;1.15;;